createdAt,value
2018-07-26T00:02:23.429Z,59.85
2018-07-26T00:04:51.484Z,58.86
2018-07-26T00:07:19.339Z,59.28
2018-07-26T00:09:47.008Z,59.34
2018-07-26T00:12:14.705Z,59.17
2018-07-26T00:14:42.702Z,58.91
2018-07-26T00:17:10.351Z,58.37
2018-07-26T00:19:38.062Z,59.01
2018-07-26T00:22:06.191Z,59.08
2018-07-26T00:24:33.889Z,59.52
2018-07-26T00:27:02.039Z,59.78
2018-07-26T00:29:29.669Z,59.05
2018-07-26T00:31:57.549Z,59.27
2018-07-26T00:34:25.834Z,59.20
2018-07-26T00:36:53.601Z,59.68
2018-07-26T00:39:21.490Z,59.43
2018-07-26T00:41:49.121Z,60.13
2018-07-26T00:44:16.770Z,59.68
2018-07-26T00:46:44.410Z,59.49
2018-07-26T00:49:12.310Z,59.67
2018-07-26T00:51:39.945Z,59.56
2018-07-26T00:54:07.701Z,60.12
2018-07-26T00:56:35.292Z,59.42
2018-07-26T00:59:02.921Z,59.80
2018-07-26T01:01:31.409Z,60.26
2018-07-26T01:03:59.425Z,59.60
2018-07-26T01:06:27.467Z,60.58
2018-07-26T01:08:55.109Z,61.12
2018-07-26T01:11:22.773Z,60.13
2018-07-26T01:13:50.441Z,60.49
2018-07-26T01:16:18.283Z,59.63
2018-07-26T01:18:45.936Z,59.52
2018-07-26T01:21:13.598Z,60.33
2018-07-26T01:23:41.368Z,60.88
2018-07-26T01:26:08.966Z,59.95
2018-07-26T01:28:36.615Z,60.48
2018-07-26T01:31:04.314Z,60.06
2018-07-26T01:33:32.247Z,60.79
2018-07-26T01:36:00.186Z,59.92
2018-07-26T01:38:28.719Z,60.86
2018-07-26T01:40:57.200Z,60.20
2018-07-26T01:43:47.372Z,59.99
2018-07-26T01:46:15.154Z,60.12
2018-07-26T01:48:44.565Z,61.16
2018-07-26T01:51:13.477Z,60.49
2018-07-26T01:53:41.995Z,60.63
2018-07-26T01:56:10.209Z,60.79
2018-07-26T01:58:38.242Z,60.74
2018-07-26T02:01:07.632Z,61.72
2018-07-26T02:03:35.414Z,60.96
2018-07-26T02:06:03.409Z,60.77
2018-07-26T02:08:31.244Z,60.93
2018-07-26T02:10:59.312Z,61.57
2018-07-26T02:13:26.965Z,61.15
2018-07-26T02:15:54.655Z,60.69
2018-07-26T02:18:22.661Z,60.67
2018-07-26T02:20:50.698Z,60.70
2018-07-26T02:23:18.306Z,60.88
2018-07-26T02:25:46.560Z,61.80
2018-07-26T02:28:14.209Z,61.40
2018-07-26T02:30:42.129Z,61.18
2018-07-26T02:33:09.855Z,61.03
2018-07-26T02:35:37.585Z,61.27
2018-07-26T02:38:05.329Z,61.87
2018-07-26T02:40:33.238Z,61.18
2018-07-26T02:43:01.613Z,61.87
2018-07-26T02:45:29.378Z,61.98
2018-07-26T02:47:57.046Z,61.48
2018-07-26T02:50:24.697Z,62.21
2018-07-26T02:52:52.574Z,62.17
2018-07-26T02:55:20.208Z,61.32
2018-07-26T02:57:48.250Z,61.01
2018-07-26T03:00:15.903Z,61.08
2018-07-26T03:02:43.605Z,61.69
2018-07-26T03:05:11.260Z,60.77
2018-07-26T03:07:38.873Z,60.93
2018-07-26T03:10:06.821Z,60.26
2018-07-26T03:12:34.777Z,61.21
2018-07-26T03:15:02.372Z,61.03
2018-07-26T03:17:30.020Z,61.06
2018-07-26T03:19:57.970Z,60.55
2018-07-26T03:22:25.818Z,60.93
2018-07-26T03:24:53.498Z,59.87
2018-07-26T03:27:21.517Z,60.54
2018-07-26T03:29:49.424Z,61.29
2018-07-26T03:32:17.048Z,61.35
2018-07-26T03:34:44.904Z,61.20
2018-07-26T03:37:12.581Z,61.42
2018-07-26T03:39:40.929Z,61.10
2018-07-26T03:42:08.565Z,61.29
2018-07-26T03:44:36.673Z,61.40
2018-07-26T03:47:04.605Z,60.69
2018-07-26T03:49:32.242Z,61.08
2018-07-26T03:52:00.333Z,61.89
2018-07-26T03:54:28.017Z,61.39
2018-07-26T03:56:55.829Z,61.51
2018-07-26T03:59:23.698Z,61.17
2018-07-26T04:01:51.367Z,60.75
2018-07-26T04:04:19.257Z,61.21
2018-07-26T04:06:47.233Z,59.99
2018-07-26T04:09:16.119Z,60.34
2018-07-26T04:11:44.886Z,60.14
2018-07-26T04:14:12.825Z,61.10
2018-07-26T04:16:40.437Z,61.57
2018-07-26T04:19:09.454Z,61.10
2018-07-26T04:21:37.825Z,60.15
2018-07-26T04:24:06.145Z,60.81
2018-07-26T04:26:34.023Z,60.42
2018-07-26T04:29:01.754Z,60.78
2018-07-26T04:31:29.631Z,60.09
2018-07-26T04:33:57.710Z,60.52
2018-07-26T04:36:25.390Z,59.95
2018-07-26T04:38:53.330Z,60.68
2018-07-26T04:41:21.678Z,59.58
2018-07-26T04:43:49.678Z,60.51
2018-07-26T04:46:17.294Z,60.38
2018-07-26T04:48:44.905Z,60.50
2018-07-26T04:51:13.089Z,59.35
2018-07-26T04:53:40.811Z,59.80
2018-07-26T04:56:08.448Z,60.15
2018-07-26T04:58:36.408Z,59.91
2018-07-26T05:01:04.311Z,60.55
2018-07-26T05:03:31.996Z,60.20
2018-07-26T05:06:00.259Z,60.57
2018-07-26T05:08:28.204Z,60.51
2018-07-26T05:10:55.828Z,61.45
2018-07-26T05:13:23.749Z,60.75
2018-07-26T05:15:51.347Z,61.12
2018-07-26T05:18:19.264Z,60.38
2018-07-26T05:20:47.437Z,59.76
2018-07-26T05:23:15.069Z,58.96
2018-07-26T05:25:42.669Z,58.82
2018-07-26T05:28:10.668Z,59.31
2018-07-26T05:30:38.578Z,59.31
2018-07-26T05:33:06.368Z,59.97
2018-07-26T05:35:34.022Z,59.10
2018-07-26T05:38:01.916Z,59.86
2018-07-26T05:40:29.574Z,58.88
2018-07-26T05:42:57.345Z,58.57
2018-07-26T05:45:25.015Z,58.59
2018-07-26T05:47:52.934Z,59.04
2018-07-26T05:50:20.943Z,58.69
2018-07-26T05:52:48.839Z,57.95
2018-07-26T05:55:16.717Z,57.85
2018-07-26T05:57:44.618Z,58.55
2018-07-26T06:00:13.419Z,58.21
2018-07-26T06:02:41.530Z,57.42
2018-07-26T06:05:09.607Z,57.08
2018-07-26T06:07:37.237Z,57.87
2018-07-26T06:10:05.933Z,58.17
2018-07-26T06:12:33.846Z,57.13
2018-07-26T06:15:01.470Z,58.01
2018-07-26T06:17:29.353Z,57.20
2018-07-26T06:19:56.970Z,56.82
2018-07-26T06:22:25.201Z,56.92
2018-07-26T06:24:53.134Z,57.14
2018-07-26T06:27:21.014Z,56.91
2018-07-26T06:29:48.660Z,57.47
2018-07-26T06:32:16.300Z,56.90
2018-07-26T06:34:43.962Z,56.86
2018-07-26T06:37:11.596Z,57.00
2018-07-26T06:39:39.236Z,56.54
2018-07-26T06:42:07.401Z,56.73
2018-07-26T06:44:35.036Z,55.92
2018-07-26T06:47:02.733Z,56.08
2018-07-26T06:49:30.603Z,55.82
2018-07-26T06:51:58.600Z,55.93
2018-07-26T06:54:26.238Z,56.05
2018-07-26T06:56:54.807Z,56.45
2018-07-26T06:59:22.712Z,55.48
2018-07-26T07:01:50.315Z,55.81
2018-07-26T07:04:18.080Z,55.58
2018-07-26T07:06:45.693Z,56.29
2018-07-26T07:09:13.364Z,55.92
2018-07-26T07:11:41.494Z,55.58
2018-07-26T07:14:09.190Z,55.29
2018-07-26T07:16:36.859Z,54.96
2018-07-26T07:19:04.954Z,54.88
2018-07-26T07:21:32.552Z,55.21
2018-07-26T07:24:00.457Z,55.20
2018-07-26T07:26:28.788Z,54.99
2018-07-26T07:28:57.000Z,54.28
2018-07-26T07:31:25.062Z,53.83
2018-07-26T07:33:52.720Z,53.63
2018-07-26T07:36:20.393Z,54.05
2018-07-26T07:38:48.104Z,54.34
2018-07-26T07:41:15.752Z,53.54
2018-07-26T07:43:43.738Z,54.11
2018-07-26T07:46:11.609Z,53.74
2018-07-26T07:48:39.267Z,53.26
2018-07-26T07:51:07.325Z,52.96
2018-07-26T07:53:34.969Z,53.77
2018-07-26T07:56:02.621Z,53.23
2018-07-26T07:58:30.309Z,53.53
2018-07-26T08:00:57.992Z,53.89
2018-07-26T08:03:26.096Z,53.16
2018-07-26T08:05:53.783Z,53.77
2018-07-26T08:08:21.583Z,53.37
2018-07-26T08:10:49.490Z,53.13
2018-07-26T08:13:17.284Z,52.79
2018-07-26T08:15:45.111Z,52.07
2018-07-26T08:18:12.717Z,52.14
2018-07-26T08:20:40.454Z,51.71
2018-07-26T08:23:08.125Z,51.98
2018-07-26T08:25:36.444Z,52.43
2018-07-26T08:28:04.254Z,51.06
2018-07-26T08:30:31.884Z,51.57
2018-07-26T08:32:59.589Z,51.45
2018-07-26T08:35:27.865Z,51.39
2018-07-26T08:37:55.514Z,50.83
2018-07-26T08:40:23.152Z,51.10
2018-07-26T08:42:50.810Z,50.92
2018-07-26T08:45:18.833Z,50.35
2018-07-26T08:47:46.489Z,50.87
2018-07-26T08:50:14.685Z,50.54
2018-07-26T08:52:42.344Z,49.84
2018-07-26T08:55:10.329Z,49.68
2018-07-26T08:57:38.214Z,50.21
2018-07-26T09:00:06.353Z,49.20
2018-07-26T09:02:34.296Z,49.07
2018-07-26T09:05:01.958Z,49.53
2018-07-26T09:07:29.646Z,48.52
2018-07-26T09:09:57.341Z,48.49
2018-07-26T09:12:24.981Z,49.35
2018-07-26T09:14:52.661Z,48.83
2018-07-26T09:17:20.695Z,49.23
2018-07-26T09:19:48.831Z,48.75
2018-07-26T09:22:16.645Z,48.79
2018-07-26T09:24:44.326Z,48.94
2018-07-26T09:27:13.356Z,48.68
2018-07-26T09:29:41.099Z,47.71
2018-07-26T09:32:08.874Z,47.50
2018-07-26T09:34:37.162Z,48.35
2018-07-26T09:37:04.828Z,48.27
2018-07-26T09:39:32.534Z,47.59
2018-07-26T09:42:00.703Z,47.89
2018-07-26T09:44:28.321Z,47.46
2018-07-26T09:46:56.096Z,47.08
2018-07-26T09:49:26.121Z,46.71
2018-07-26T09:51:53.757Z,47.27
2018-07-26T09:54:21.421Z,47.54
2018-07-26T09:56:49.656Z,47.06
2018-07-26T09:59:17.286Z,47.19
2018-07-26T10:01:45.222Z,46.47
2018-07-26T10:04:13.241Z,46.94
2018-07-26T10:06:40.879Z,46.88
2018-07-26T10:09:10.152Z,46.15
2018-07-26T10:11:37.945Z,46.25
2018-07-26T10:14:05.660Z,47.19
2018-07-26T10:16:33.958Z,46.14
2018-07-26T10:19:01.951Z,46.25
2018-07-26T10:21:29.661Z,47.17
2018-07-26T10:23:57.772Z,47.10
2018-07-26T10:26:25.816Z,46.64
2018-07-26T10:28:53.553Z,47.17
2018-07-26T10:31:21.597Z,46.14
2018-07-26T10:33:49.357Z,46.61
2018-07-26T10:36:17.374Z,46.25
2018-07-26T10:38:45.257Z,46.25
2018-07-26T10:41:13.130Z,47.05
2018-07-26T10:43:40.936Z,46.41
2018-07-26T10:46:08.655Z,46.50
2018-07-26T10:48:36.794Z,46.89
2018-07-26T10:51:05.037Z,46.91
2018-07-26T10:53:32.753Z,47.02
2018-07-26T10:56:00.514Z,46.37
2018-07-26T10:58:28.361Z,46.71
2018-07-26T11:00:56.274Z,46.51
2018-07-26T11:03:26.221Z,46.67
2018-07-26T11:05:54.226Z,46.12
2018-07-26T11:08:21.978Z,46.21
2018-07-26T11:10:49.780Z,45.96
2018-07-26T11:13:17.469Z,46.76
2018-07-26T11:15:45.105Z,46.36
2018-07-26T11:18:12.822Z,46.45
2018-07-26T11:20:40.511Z,46.67
2018-07-26T11:23:08.400Z,46.33
2018-07-26T11:25:36.408Z,45.68
2018-07-26T11:28:04.846Z,46.28
2018-07-26T11:30:32.789Z,45.91
2018-07-26T11:33:00.684Z,45.30
2018-07-26T11:35:28.756Z,45.46
2018-07-26T11:37:56.452Z,45.04
2018-07-26T11:40:24.508Z,45.74
2018-07-26T11:42:52.471Z,45.17
2018-07-26T11:45:20.665Z,45.66
2018-07-26T11:47:48.333Z,44.92
2018-07-26T11:50:16.220Z,44.76
2018-07-26T11:52:43.957Z,45.13
2018-07-26T11:55:11.593Z,45.13
2018-07-26T11:57:39.585Z,44.99
2018-07-26T12:00:08.076Z,45.47
2018-07-26T12:02:36.717Z,45.31
2018-07-26T12:05:04.897Z,44.46
2018-07-26T12:07:32.807Z,44.22
2018-07-26T12:10:00.701Z,44.01
2018-07-26T12:12:28.434Z,44.41
2018-07-26T12:14:56.370Z,43.62
2018-07-26T12:17:24.065Z,43.58
2018-07-26T12:19:51.755Z,43.45
2018-07-26T12:22:20.077Z,44.06
2018-07-26T12:24:47.868Z,43.97
2018-07-26T12:27:15.528Z,43.13
2018-07-26T12:29:43.554Z,43.62
2018-07-26T12:32:11.237Z,43.01
2018-07-26T12:34:38.913Z,43.47
2018-07-26T12:37:06.581Z,43.08
2018-07-26T12:39:35.082Z,42.29
2018-07-26T12:42:02.713Z,42.60
2018-07-26T12:44:30.788Z,42.50
2018-07-26T12:46:58.723Z,42.90
2018-07-26T12:49:26.660Z,42.89
2018-07-26T12:51:54.313Z,42.07
2018-07-26T12:54:22.032Z,42.18
2018-07-26T12:56:49.674Z,42.63
2018-07-26T12:59:17.279Z,43.08
2018-07-26T13:01:45.404Z,42.78
2018-07-26T13:04:13.077Z,42.02
2018-07-26T13:06:40.857Z,42.28
2018-07-26T13:09:09.694Z,41.82
2018-07-26T13:11:37.421Z,42.10
2018-07-26T13:14:05.845Z,41.26
2018-07-26T13:16:34.081Z,41.62
2018-07-26T13:19:02.438Z,41.37
2018-07-26T13:21:30.131Z,41.36
2018-07-26T13:23:58.205Z,40.62
2018-07-26T13:26:26.049Z,40.73
2018-07-26T13:28:53.993Z,40.90
2018-07-26T13:31:21.676Z,39.65
2018-07-26T13:33:49.621Z,40.43
2018-07-26T13:36:17.293Z,40.92
2018-07-26T13:38:45.189Z,40.36
2018-07-26T13:41:13.394Z,40.80
2018-07-26T13:43:41.294Z,40.63
2018-07-26T13:46:09.170Z,40.46
2018-07-26T13:48:36.855Z,40.06
2018-07-26T13:51:05.416Z,39.98
2018-07-26T13:53:33.126Z,40.08
2018-07-26T13:56:00.783Z,39.29
2018-07-26T13:58:28.512Z,39.71
2018-07-26T14:00:56.599Z,39.65
2018-07-26T14:03:24.527Z,39.56
2018-07-26T14:05:52.186Z,39.08
2018-07-26T14:08:19.845Z,39.20
2018-07-26T14:10:47.513Z,39.00
2018-07-26T14:13:15.169Z,38.74
2018-07-26T14:15:43.453Z,39.30
2018-07-26T14:18:11.101Z,39.02
2018-07-26T14:20:38.782Z,38.74
2018-07-26T14:23:06.981Z,39.09
2018-07-26T14:25:34.614Z,38.68
2018-07-26T14:28:02.244Z,38.87
2018-07-26T14:30:30.692Z,38.55
2018-07-26T14:32:58.664Z,37.68
2018-07-26T14:35:26.529Z,36.94
2018-07-26T14:37:54.461Z,34.46
2018-07-26T14:40:22.333Z,32.22
2018-07-26T14:42:50.576Z,31.77
2018-07-26T14:45:18.261Z,30.95
2018-07-26T14:47:45.934Z,30.01
2018-07-26T14:50:13.925Z,30.18
2018-07-26T14:52:41.722Z,29.53
2018-07-26T14:55:09.662Z,29.07
2018-07-26T14:57:37.351Z,29.14
2018-07-26T15:00:05.429Z,29.21
2018-07-26T15:02:33.081Z,28.21
2018-07-26T15:05:00.831Z,28.27
2018-07-26T15:07:28.534Z,29.04
2018-07-26T15:09:56.220Z,31.42
2018-07-26T15:12:23.881Z,33.24
2018-07-26T15:14:51.885Z,34.28
2018-07-26T15:17:19.594Z,35.14
2018-07-26T15:19:47.303Z,35.56
2018-07-26T15:22:14.983Z,35.43
2018-07-26T15:24:42.651Z,35.91
2018-07-26T15:27:10.981Z,35.77
2018-07-26T15:29:38.664Z,35.91
2018-07-26T15:32:06.901Z,36.10
2018-07-26T15:34:34.996Z,36.10
2018-07-26T15:37:02.628Z,36.42
2018-07-26T15:39:30.492Z,37.00
2018-07-26T15:41:58.521Z,36.68
2018-07-26T15:44:26.172Z,36.55
2018-07-26T15:46:53.840Z,36.41
2018-07-26T15:49:21.562Z,36.75
2018-07-26T15:51:49.545Z,36.74
2018-07-26T15:54:17.326Z,37.29
2018-07-26T15:56:45.010Z,37.74
2018-07-26T15:59:12.700Z,38.14
2018-07-26T16:01:40.677Z,38.35
2018-07-26T16:04:08.369Z,38.18
2018-07-26T16:06:36.247Z,38.28
2018-07-26T16:09:06.267Z,39.01
2018-07-26T16:11:34.357Z,39.00
2018-07-26T16:14:02.031Z,38.61
2018-07-26T16:16:29.705Z,39.19
2018-07-26T16:18:57.686Z,39.10
2018-07-26T16:21:25.357Z,39.35
2018-07-26T16:23:53.059Z,39.90
2018-07-26T16:26:21.095Z,39.65
2018-07-26T16:28:49.150Z,39.77
2018-07-26T16:31:17.259Z,40.02
2018-07-26T16:33:44.900Z,39.44
2018-07-26T16:36:12.833Z,39.20
2018-07-26T16:38:41.363Z,39.59
2018-07-26T16:41:09.197Z,39.14
2018-07-26T16:43:37.231Z,38.94
2018-07-26T16:46:05.145Z,39.86
2018-07-26T16:48:33.770Z,39.43
2018-07-26T16:51:01.620Z,40.08
2018-07-26T16:53:29.317Z,40.13
2018-07-26T16:55:56.976Z,39.37
2018-07-26T16:58:24.759Z,39.20
2018-07-26T17:00:52.365Z,39.56
2018-07-26T17:03:20.281Z,39.57
2018-07-26T17:05:47.949Z,39.01
2018-07-26T17:08:16.549Z,39.98
2018-07-26T17:10:44.274Z,39.72
2018-07-26T17:13:12.611Z,39.16
2018-07-26T17:15:40.392Z,38.72
2018-07-26T17:18:08.473Z,38.88
2018-07-26T17:20:36.769Z,39.04
2018-07-26T17:23:04.772Z,38.53
2018-07-26T17:25:32.737Z,39.02
2018-07-26T17:28:00.613Z,38.74
2018-07-26T17:30:28.584Z,38.27
2018-07-26T17:32:56.697Z,38.65
2018-07-26T17:35:24.574Z,37.67
2018-07-26T17:37:52.934Z,37.79
2018-07-26T17:40:20.875Z,38.41
2018-07-26T17:42:48.885Z,37.92
2018-07-26T17:45:16.788Z,38.45
2018-07-26T17:47:44.687Z,38.05
2018-07-26T17:50:12.870Z,37.95
2018-07-26T17:52:41.501Z,37.88
2018-07-26T17:55:09.485Z,38.00
2018-07-26T17:57:37.605Z,38.13
2018-07-26T18:00:07.993Z,38.23
2018-07-26T18:02:35.957Z,38.19
2018-07-26T18:05:04.093Z,37.87
2018-07-26T18:07:32.101Z,38.12
2018-07-26T18:10:00.128Z,38.49
2018-07-26T18:12:28.032Z,38.57
2018-07-26T18:14:55.683Z,38.61
2018-07-26T18:17:23.712Z,40.25
2018-07-26T18:19:51.726Z,40.48
2018-07-26T18:22:19.380Z,39.90
2018-07-26T18:24:47.315Z,39.94
2018-07-26T18:27:14.977Z,40.45
2018-07-26T18:29:43.242Z,40.53
2018-07-26T18:32:10.928Z,40.24
2018-07-26T18:34:38.618Z,40.03
2018-07-26T18:37:06.358Z,40.52
2018-07-26T18:39:35.710Z,40.11
2018-07-26T18:42:04.097Z,40.38
2018-07-26T18:44:32.188Z,40.94
2018-07-26T18:46:59.831Z,40.77
2018-07-26T18:49:28.068Z,41.20
2018-07-26T18:51:56.118Z,40.84
2018-07-26T18:54:23.752Z,40.83
2018-07-26T18:56:51.752Z,40.47
2018-07-26T18:59:19.858Z,41.08
2018-07-26T19:01:47.527Z,41.27
2018-07-26T19:04:15.692Z,41.30
2018-07-26T19:06:43.422Z,41.20
2018-07-26T19:09:12.191Z,41.36
2018-07-26T19:11:40.920Z,41.87
2018-07-26T19:14:08.588Z,42.18
2018-07-26T19:16:36.251Z,41.77
2018-07-26T19:19:04.055Z,42.21
2018-07-26T19:21:31.721Z,42.32
2018-07-26T19:23:59.377Z,42.50
2018-07-26T19:26:27.220Z,42.77
2018-07-26T19:28:54.912Z,42.90
2018-07-26T19:31:23.044Z,42.36
2018-07-26T19:33:52.324Z,42.57
2018-07-26T19:36:20.090Z,42.36
2018-07-26T19:38:47.671Z,41.77
2018-07-26T19:41:15.940Z,42.25
2018-07-26T19:43:43.949Z,42.87
2018-07-26T19:46:11.807Z,43.27
2018-07-26T19:48:39.507Z,42.45
2018-07-26T19:51:07.154Z,43.31
2018-07-26T19:53:34.811Z,43.68
2018-07-26T19:56:02.732Z,43.33
2018-07-26T19:58:30.869Z,43.34
2018-07-26T20:00:58.984Z,43.30
2018-07-26T20:03:26.805Z,44.08
2018-07-26T20:05:54.446Z,43.74
2018-07-26T20:08:22.087Z,44.03
2018-07-26T20:10:49.796Z,43.83
2018-07-26T20:13:17.954Z,44.06
2018-07-26T20:15:46.485Z,44.13
2018-07-26T20:18:14.874Z,43.68
2018-07-26T20:20:42.884Z,43.86
2018-07-26T20:23:10.554Z,44.22
2018-07-26T20:25:40.317Z,44.57
2018-07-26T20:28:08.644Z,44.01
2018-07-26T20:30:36.553Z,43.99
2018-07-26T20:33:04.294Z,44.98
2018-07-26T20:35:31.873Z,44.94
2018-07-26T20:37:59.571Z,44.23
2018-07-26T20:40:27.471Z,45.30
2018-07-26T20:42:55.321Z,45.37
2018-07-26T20:45:23.005Z,45.38
2018-07-26T20:47:50.676Z,45.38
2018-07-26T20:50:18.559Z,44.89
2018-07-26T20:52:46.287Z,45.11
2018-07-26T20:55:13.941Z,45.08
2018-07-26T20:57:41.605Z,45.03
2018-07-26T21:00:11.027Z,45.33
2018-07-26T21:02:38.708Z,45.11
2018-07-26T21:05:06.379Z,44.81
2018-07-26T21:07:34.657Z,45.22
2018-07-26T21:10:02.400Z,45.30
2018-07-26T21:12:30.689Z,45.00
2018-07-26T21:14:58.398Z,45.32
2018-07-26T21:17:26.060Z,44.88
2018-07-26T21:19:53.994Z,45.37
2018-07-26T21:22:21.602Z,45.25
2018-07-26T21:24:50.022Z,45.81
2018-07-26T21:27:17.990Z,44.89
2018-07-26T21:29:45.677Z,45.36
2018-07-26T21:32:13.350Z,46.16
2018-07-26T21:34:41.043Z,45.59
2018-07-26T21:37:08.716Z,45.19
2018-07-26T21:39:36.630Z,45.20
2018-07-26T21:42:04.709Z,45.35
2018-07-26T21:44:32.394Z,45.54
2018-07-26T21:47:00.052Z,46.04
2018-07-26T21:49:28.090Z,45.83
2018-07-26T21:51:55.955Z,46.49
2018-07-26T21:54:24.214Z,46.82
2018-07-26T21:56:52.162Z,46.40
2018-07-26T21:59:19.860Z,47.11
2018-07-26T22:01:47.592Z,47.22
2018-07-26T22:04:15.253Z,47.58
2018-07-26T22:06:43.736Z,47.13
2018-07-26T22:09:12.027Z,47.14
2018-07-26T22:11:40.287Z,46.91
2018-07-26T22:14:08.621Z,46.96
2018-07-26T22:16:36.621Z,48.19
2018-07-26T22:19:04.516Z,47.31
2018-07-26T22:21:32.262Z,46.80
2018-07-26T22:24:00.787Z,47.63
2018-07-26T22:26:28.434Z,47.04
2018-07-26T22:28:56.367Z,47.71
2018-07-26T22:31:24.350Z,47.89
2018-07-26T22:33:52.638Z,48.44
2018-07-26T22:36:20.308Z,47.92
2018-07-26T22:38:48.780Z,48.37
2018-07-26T22:41:16.382Z,47.73
2018-07-26T22:43:44.096Z,48.57
2018-07-26T22:46:12.035Z,48.70
2018-07-26T22:48:40.258Z,49.25
2018-07-26T22:51:07.970Z,49.21
2018-07-26T22:53:35.665Z,48.64
2018-07-26T22:56:03.311Z,50.11
2018-07-26T22:58:30.957Z,49.96
2018-07-26T23:00:58.653Z,49.44
2018-07-26T23:03:26.393Z,49.74
2018-07-26T23:05:54.232Z,49.99
2018-07-26T23:08:22.249Z,49.18
2018-07-26T23:10:49.899Z,49.58
2018-07-26T23:13:17.932Z,50.59
2018-07-26T23:15:45.617Z,49.91
2018-07-26T23:18:13.602Z,49.28
2018-07-26T23:20:41.381Z,49.69
2018-07-26T23:23:12.593Z,49.38
2018-07-26T23:25:42.514Z,49.77
2018-07-26T23:28:10.524Z,50.31
2018-07-26T23:30:38.168Z,50.73
2018-07-26T23:33:06.141Z,50.30
2018-07-26T23:35:34.117Z,50.09
2018-07-26T23:38:01.755Z,50.60
2018-07-26T23:40:29.428Z,50.79
2018-07-26T23:42:57.407Z,50.51
2018-07-26T23:45:25.413Z,50.52
2018-07-26T23:47:53.056Z,50.62
2018-07-26T23:50:20.796Z,50.46
2018-07-26T23:52:49.052Z,50.51
2018-07-26T23:55:16.910Z,50.76
2018-07-26T23:57:45.161Z,50.53
